createdAt,value
2023-02-26T00:02:02.242Z,101839.91
2023-02-26T00:04:47.777Z,101830.66
2023-02-26T00:07:32.966Z,101853.75
2023-02-26T00:10:18.647Z,101856.41
2023-02-26T00:13:04.018Z,101857.38
2023-02-26T00:15:55.626Z,101838.47
2023-02-26T00:18:40.943Z,101847.09
2023-02-26T00:21:27.165Z,101843.63
2023-02-26T00:24:12.096Z,101843.66
2023-02-26T00:26:57.444Z,101840.22
2023-02-26T00:29:42.949Z,101841.13
2023-02-26T00:32:29.204Z,101842.88
2023-02-26T00:35:16.731Z,101838.72
2023-02-26T00:38:06.872Z,101848.13
2023-02-26T00:40:54.230Z,101844.66
2023-02-26T00:43:39.812Z,101849.84
2023-02-26T00:46:34.186Z,101852.44
2023-02-26T00:49:48.551Z,101847.38
2023-02-26T00:52:44.512Z,101855.97
2023-02-26T00:55:29.816Z,101855.94
2023-02-26T00:58:14.810Z,101845.59
2023-02-26T01:01:00.192Z,101835.47
2023-02-26T01:03:45.560Z,101850.81
2023-02-26T01:06:33.933Z,101833.78
2023-02-26T01:09:29.840Z,101849.13
2023-02-26T01:12:17.540Z,101817.56
2023-02-26T01:15:03.638Z,101852.63
2023-02-26T01:18:06.665Z,101866.44
2023-02-26T01:20:57.669Z,101868.19
2023-02-26T01:23:47.874Z,101864.63
2023-02-26T01:26:33.131Z,101862.97
2023-02-26T01:29:18.434Z,101870.72
2023-02-26T01:32:11.431Z,101870.78
2023-02-26T01:35:13.724Z,101876.84
2023-02-26T01:38:03.894Z,101873.47
2023-02-26T01:40:54.926Z,101873.50
2023-02-26T01:43:50.650Z,101864.84
2023-02-26T01:47:10.700Z,101865.72
2023-02-26T01:49:56.063Z,101873.38
2023-02-26T01:52:50.409Z,101873.38
2023-02-26T01:55:36.052Z,101873.47
2023-02-26T01:58:23.760Z,101883.75
2023-02-26T02:01:09.041Z,101876.91
2023-02-26T02:03:54.318Z,101858.97
2023-02-26T02:06:39.835Z,101895.84
2023-02-26T02:09:25.159Z,101889.91
2023-02-26T02:12:13.540Z,101899.44
2023-02-26T02:15:11.315Z,101892.59
2023-02-26T02:18:24.116Z,101877.97
2023-02-26T02:21:34.905Z,101888.25
2023-02-26T02:24:33.702Z,101887.47
2023-02-26T02:27:54.207Z,101891.84
2023-02-26T02:31:15.062Z,101885.88
2023-02-26T02:34:21.719Z,101890.19
2023-02-26T02:37:31.696Z,101885.03
2023-02-26T02:40:40.996Z,101888.56
2023-02-26T02:43:31.138Z,101891.91
2023-02-26T02:46:28.212Z,101873.16
2023-02-26T02:49:20.501Z,101874.97
2023-02-26T02:52:29.566Z,101891.25
2023-02-26T02:55:21.085Z,101899.00
2023-02-26T02:58:17.355Z,101903.28
2023-02-26T03:01:08.717Z,101908.50
2023-02-26T03:04:02.320Z,101860.59
2023-02-26T03:06:50.053Z,101901.63
2023-02-26T03:09:35.057Z,101905.13
2023-02-26T03:12:20.190Z,101911.13
2023-02-26T03:15:05.882Z,101911.19
2023-02-26T03:18:10.734Z,101912.06
2023-02-26T03:21:16.851Z,101913.81
2023-02-26T03:24:17.408Z,101888.97
2023-02-26T03:27:30.131Z,101910.38
2023-02-26T03:30:20.799Z,101913.75
2023-02-26T03:33:18.042Z,101917.22
2023-02-26T03:36:16.664Z,101906.91
2023-02-26T03:39:18.682Z,101922.41
2023-02-26T03:42:21.598Z,101933.63
2023-02-26T03:45:17.477Z,101925.03
2023-02-26T03:48:07.077Z,101923.34
2023-02-26T03:50:56.617Z,101935.31
2023-02-26T03:54:01.628Z,101939.59
2023-02-26T03:56:48.242Z,101937.97
2023-02-26T03:59:35.008Z,101945.72
2023-02-26T04:02:53.518Z,101948.25
2023-02-26T04:05:42.286Z,101943.16
2023-02-26T04:08:29.848Z,101953.50
2023-02-26T04:11:19.124Z,101955.22
2023-02-26T04:14:04.535Z,101959.50
2023-02-26T04:16:49.691Z,101958.59
2023-02-26T04:19:34.899Z,101962.00
2023-02-26T04:22:19.963Z,101966.34
2023-02-26T04:25:05.559Z,101938.88
2023-02-26T04:27:50.933Z,101968.91
2023-02-26T04:30:35.939Z,101941.44
2023-02-26T04:33:21.228Z,101962.88
2023-02-26T04:36:06.267Z,101926.94
2023-02-26T04:38:51.532Z,101973.16
2023-02-26T04:41:37.832Z,101974.81
2023-02-26T04:44:22.780Z,101974.84
2023-02-26T04:47:08.058Z,101978.22
2023-02-26T04:49:53.116Z,101972.22
2023-02-26T04:52:38.061Z,101976.44
2023-02-26T04:55:23.358Z,101981.53
2023-02-26T04:58:08.896Z,101990.09
2023-02-26T05:00:54.875Z,101977.19
2023-02-26T05:03:40.039Z,101978.84
2023-02-26T05:06:25.512Z,101938.63
2023-02-26T05:09:11.135Z,101979.66
2023-02-26T05:11:56.424Z,101987.41
2023-02-26T05:14:41.692Z,101983.06
2023-02-26T05:17:27.222Z,101960.84
2023-02-26T05:20:12.802Z,101987.31
2023-02-26T05:22:57.631Z,101996.75
2023-02-26T05:25:42.844Z,101993.28
2023-02-26T05:28:28.830Z,101989.03
2023-02-26T05:31:14.133Z,101988.91
2023-02-26T05:33:59.502Z,101993.22
2023-02-26T05:36:44.219Z,102000.97
2023-02-26T05:39:29.278Z,102010.38
2023-02-26T05:42:14.590Z,102014.66
2023-02-26T05:44:59.746Z,102011.19
2023-02-26T05:47:44.933Z,102015.44
2023-02-26T05:50:30.697Z,102005.25
2023-02-26T05:53:15.796Z,102005.25
2023-02-26T05:56:01.010Z,102015.44
2023-02-26T05:58:46.674Z,102021.47
2023-02-26T06:01:32.030Z,101999.25
2023-02-26T06:04:17.501Z,102040.50
2023-02-26T06:07:02.843Z,102037.94
2023-02-26T06:09:48.143Z,102045.69
2023-02-26T06:12:33.231Z,102046.53
2023-02-26T06:15:18.196Z,102043.16
2023-02-26T06:18:03.540Z,102053.50
2023-02-26T06:20:48.940Z,102059.56
2023-02-26T06:23:33.879Z,102045.88
2023-02-26T06:26:19.237Z,102056.97
2023-02-26T06:29:04.539Z,102053.56
2023-02-26T06:31:50.092Z,102061.31
2023-02-26T06:34:35.119Z,102070.75
2023-02-26T06:37:20.480Z,102063.84
2023-02-26T06:40:06.719Z,102068.22
2023-02-26T06:42:52.000Z,102071.69
2023-02-26T06:45:37.289Z,102076.09
2023-02-26T06:48:22.603Z,102085.50
2023-02-26T06:51:07.760Z,102102.78
2023-02-26T06:53:53.457Z,102089.84
2023-02-26T06:56:38.529Z,102106.22
2023-02-26T06:59:24.752Z,102107.97
2023-02-26T07:02:16.875Z,102131.09
2023-02-26T07:05:02.045Z,102145.69
2023-02-26T07:07:47.383Z,102155.25
2023-02-26T07:10:34.127Z,102128.59
2023-02-26T07:13:19.501Z,102121.75
2023-02-26T07:16:07.341Z,102116.66
2023-02-26T07:18:52.641Z,102144.97
2023-02-26T07:21:37.609Z,102144.91
2023-02-26T07:24:23.197Z,102138.03
2023-02-26T07:27:08.555Z,102156.09
2023-02-26T07:29:53.684Z,102162.97
2023-02-26T07:32:39.395Z,102155.22
2023-02-26T07:35:24.638Z,102160.34
2023-02-26T07:38:09.815Z,102176.66
2023-02-26T07:40:56.516Z,102174.94
2023-02-26T07:43:42.634Z,102177.47
2023-02-26T07:46:28.128Z,102192.13
2023-02-26T07:49:13.655Z,102202.47
2023-02-26T07:51:58.654Z,102192.97
2023-02-26T07:54:43.920Z,102192.06
2023-02-26T07:57:29.173Z,102184.28
2023-02-26T08:00:15.376Z,102172.31
2023-02-26T08:03:00.307Z,102190.34
2023-02-26T08:05:45.503Z,102210.03
2023-02-26T08:08:30.828Z,102195.44
2023-02-26T08:11:16.161Z,102216.84
2023-02-26T08:14:01.511Z,102217.78
2023-02-26T08:16:46.712Z,102222.88
2023-02-26T08:19:32.539Z,102192.91
2023-02-26T08:22:17.996Z,102188.50
2023-02-26T08:25:03.793Z,102225.28
2023-02-26T08:27:48.690Z,102219.22
2023-02-26T08:30:33.758Z,102218.38
2023-02-26T08:33:19.377Z,102249.25
2023-02-26T08:36:05.018Z,102234.66
2023-02-26T08:38:50.232Z,102250.03
2023-02-26T08:41:36.260Z,102232.97
2023-02-26T08:44:21.253Z,102254.22
2023-02-26T08:47:06.521Z,102234.50
2023-02-26T08:49:51.812Z,102236.16
2023-02-26T08:52:36.842Z,102260.22
2023-02-26T08:55:22.707Z,102274.88
2023-02-26T08:58:08.397Z,102272.06
2023-02-26T09:00:53.775Z,102269.19
2023-02-26T09:03:38.759Z,102282.75
2023-02-26T09:06:23.891Z,102272.59
2023-02-26T09:09:10.124Z,102278.75
2023-02-26T09:11:55.199Z,102277.09
2023-02-26T09:14:40.175Z,102277.16
2023-02-26T09:17:25.986Z,102277.16
2023-02-26T09:20:12.150Z,102295.09
2023-02-26T09:22:57.014Z,102295.09
2023-02-26T09:25:42.368Z,102297.72
2023-02-26T09:28:27.649Z,102295.13
2023-02-26T09:31:13.327Z,102300.22
2023-02-26T09:33:58.361Z,102299.25
2023-02-26T09:36:44.194Z,102314.81
2023-02-26T09:39:29.429Z,102303.81
2023-02-26T09:42:24.641Z,102330.47
2023-02-26T09:45:30.133Z,102332.16
2023-02-26T09:48:19.109Z,102333.88
2023-02-26T09:51:07.330Z,102333.81
2023-02-26T09:53:53.325Z,102343.28
2023-02-26T09:56:38.666Z,102338.84
2023-02-26T09:59:23.609Z,102342.97
2023-02-26T10:02:24.311Z,102348.00
2023-02-26T10:05:19.048Z,102349.69
2023-02-26T10:08:12.686Z,102317.59
2023-02-26T10:11:07.497Z,102345.94
2023-02-26T10:14:06.729Z,102356.59
2023-02-26T10:16:58.229Z,102341.94
2023-02-26T10:19:47.658Z,102360.00
2023-02-26T10:22:46.701Z,102361.66
2023-02-26T10:25:41.360Z,102360.47
2023-02-26T10:28:48.764Z,102358.66
2023-02-26T10:31:58.279Z,102369.03
2023-02-26T10:35:04.474Z,102353.50
2023-02-26T10:38:05.570Z,102361.13
2023-02-26T10:41:04.669Z,102343.88
2023-02-26T10:44:02.051Z,102364.38
2023-02-26T10:46:59.576Z,102376.22
2023-02-26T10:49:50.655Z,102384.88
2023-02-26T10:52:36.522Z,102384.88
2023-02-26T10:55:39.080Z,102395.41
2023-02-26T10:58:25.927Z,102397.97
2023-02-26T11:01:16.853Z,102399.63
2023-02-26T11:04:07.277Z,102403.91
2023-02-26T11:06:58.664Z,102379.81
2023-02-26T11:09:45.801Z,102406.41
2023-02-26T11:12:32.517Z,102407.34
2023-02-26T11:15:21.120Z,102413.59
2023-02-26T11:18:06.046Z,102419.03
2023-02-26T11:20:55.724Z,102414.75
2023-02-26T11:23:43.253Z,102415.59
2023-02-26T11:26:35.829Z,102410.47
2023-02-26T11:29:23.165Z,102435.69
2023-02-26T11:32:17.697Z,102435.91
2023-02-26T11:35:08.660Z,102408.59
2023-02-26T11:37:59.898Z,102452.28
2023-02-26T11:40:53.722Z,102449.59
2023-02-26T11:43:49.613Z,102443.06
2023-02-26T11:46:45.056Z,102461.72
2023-02-26T11:49:30.325Z,102466.94
2023-02-26T11:52:20.878Z,102467.41
2023-02-26T11:55:19.152Z,102467.59
2023-02-26T11:58:17.882Z,102471.09
2023-02-26T12:01:04.539Z,102471.69
2023-02-26T12:03:51.194Z,102454.28
2023-02-26T12:06:36.665Z,102461.19
2023-02-26T12:09:22.922Z,102425.88
2023-02-26T12:12:34.332Z,102464.09
2023-02-26T12:15:40.847Z,102471.22
2023-02-26T12:18:51.383Z,102480.06
2023-02-26T12:22:07.249Z,102465.84
2023-02-26T12:25:11.032Z,102465.03
2023-02-26T12:28:17.750Z,102463.28
2023-02-26T12:31:15.660Z,102461.81
2023-02-26T12:34:07.956Z,102474.69
2023-02-26T12:37:05.133Z,102504.22
2023-02-26T12:39:50.222Z,102514.53
2023-02-26T12:42:41.616Z,102493.00
2023-02-26T12:45:55.882Z,102503.09
2023-02-26T12:49:02.393Z,102513.41
2023-02-26T12:51:54.531Z,102512.56
2023-02-26T12:54:55.465Z,102496.25
2023-02-26T12:58:01.773Z,102514.94
2023-02-26T13:01:09.482Z,102512.41
2023-02-26T13:04:04.598Z,102510.81
2023-02-26T13:07:17.853Z,102510.81
2023-02-26T13:10:21.752Z,102507.25
2023-02-26T13:13:45.463Z,102501.38
2023-02-26T13:16:50.347Z,102502.31
2023-02-26T13:19:50.523Z,102507.19
2023-02-26T13:22:46.076Z,102494.53
2023-02-26T13:25:53.588Z,102505.63
2023-02-26T13:28:39.284Z,102498.75
2023-02-26T13:31:33.800Z,102502.06
2023-02-26T13:34:26.406Z,102488.88
2023-02-26T13:37:26.135Z,102490.03
2023-02-26T13:40:14.117Z,102489.50
2023-02-26T13:43:31.412Z,102481.34
2023-02-26T13:46:34.985Z,102481.66
2023-02-26T13:49:23.643Z,102467.66
2023-02-26T13:52:24.055Z,102485.75
2023-02-26T13:55:41.045Z,102488.56
2023-02-26T13:58:49.639Z,102490.00
2023-02-26T14:02:01.656Z,102475.50
2023-02-26T14:04:51.557Z,102459.56
2023-02-26T14:07:55.931Z,102488.66
2023-02-26T14:10:47.335Z,102494.53
2023-02-26T14:13:39.505Z,102490.41
2023-02-26T14:16:29.366Z,102483.63
2023-02-26T14:19:24.092Z,102483.34
2023-02-26T14:22:09.243Z,102481.81
2023-02-26T14:25:09.731Z,102461.78
2023-02-26T14:28:20.353Z,102494.19
2023-02-26T14:31:11.681Z,102491.03
2023-02-26T14:33:56.623Z,102490.59
2023-02-26T14:36:44.522Z,102492.59
2023-02-26T14:39:34.839Z,102499.81
2023-02-26T14:42:35.312Z,102505.34
2023-02-26T14:45:31.337Z,102508.28
2023-02-26T14:48:25.164Z,102506.75
2023-02-26T14:51:34.973Z,102504.38
2023-02-26T14:54:26.928Z,102513.72
2023-02-26T14:57:25.610Z,102492.06
2023-02-26T15:00:30.080Z,102474.69
2023-02-26T15:03:30.767Z,102507.38
2023-02-26T15:06:33.034Z,102506.59
2023-02-26T15:09:21.784Z,102524.16
2023-02-26T15:12:31.844Z,102519.28
2023-02-26T15:16:04.776Z,102518.63
2023-02-26T15:18:58.708Z,102502.31
2023-02-26T15:21:59.864Z,102481.91
2023-02-26T15:24:44.993Z,102518.09
2023-02-26T15:27:32.469Z,102523.47
2023-02-26T15:30:18.155Z,102517.63
2023-02-26T15:33:13.184Z,102530.06
2023-02-26T15:35:59.814Z,102521.56
2023-02-26T15:38:50.553Z,102507.94
2023-02-26T15:41:36.660Z,102533.75
2023-02-26T15:44:32.046Z,102515.44
2023-02-26T15:47:18.170Z,102520.50
2023-02-26T15:50:04.098Z,102524.69
2023-02-26T15:52:54.275Z,102502.16
2023-02-26T15:55:50.990Z,102518.19
2023-02-26T15:58:45.997Z,102525.13
2023-02-26T16:01:32.110Z,102531.34
2023-02-26T16:04:19.608Z,102537.56
2023-02-26T16:07:04.782Z,102532.53
2023-02-26T16:09:52.764Z,102542.94
2023-02-26T16:12:43.734Z,102539.56
2023-02-26T16:15:38.501Z,102536.13
2023-02-26T16:18:26.252Z,102538.78
2023-02-26T16:21:29.040Z,102548.19
2023-02-26T16:24:23.081Z,102540.47
2023-02-26T16:27:13.247Z,102550.03
2023-02-26T16:29:59.551Z,102555.38
2023-02-26T16:32:46.658Z,102543.41
2023-02-26T16:35:37.380Z,102547.00
2023-02-26T16:38:26.586Z,102527.50
2023-02-26T16:41:12.420Z,102526.81
2023-02-26T16:44:01.313Z,102537.19
2023-02-26T16:46:46.916Z,102553.69
2023-02-26T16:49:34.919Z,102512.59
2023-02-26T16:52:25.721Z,102540.94
2023-02-26T16:55:18.379Z,102547.06
2023-02-26T16:58:07.480Z,102554.91
2023-02-26T17:01:09.376Z,102551.53
2023-02-26T17:04:03.753Z,102521.56
2023-02-26T17:06:49.118Z,102559.31
2023-02-26T17:09:37.883Z,102564.63
2023-02-26T17:12:30.109Z,102568.13
2023-02-26T17:15:26.844Z,102534.66
2023-02-26T17:18:13.650Z,102565.69
2023-02-26T17:21:05.042Z,102543.44
2023-02-26T17:23:50.862Z,102546.91
2023-02-26T17:26:36.058Z,102564.06
2023-02-26T17:29:27.995Z,102567.56
2023-02-26T17:32:22.801Z,102563.31
2023-02-26T17:35:09.100Z,102570.31
2023-02-26T17:37:54.874Z,102573.75
2023-02-26T17:40:40.921Z,102570.38
2023-02-26T17:43:26.300Z,102545.59
2023-02-26T17:46:12.581Z,102579.16
2023-02-26T17:48:57.990Z,102574.84
2023-02-26T17:51:43.399Z,102581.84
2023-02-26T17:54:28.520Z,102564.75
2023-02-26T17:57:19.504Z,102581.94
2023-02-26T18:00:05.467Z,102576.94
2023-02-26T18:02:51.593Z,102567.50
2023-02-26T18:05:39.200Z,102596.78
2023-02-26T18:08:30.582Z,102607.22
2023-02-26T18:11:17.378Z,102603.81
2023-02-26T18:14:02.600Z,102608.16
2023-02-26T18:16:47.919Z,102603.91
2023-02-26T18:19:33.219Z,102605.63
2023-02-26T18:22:19.937Z,102608.31
2023-02-26T18:25:05.377Z,102603.13
2023-02-26T18:27:54.676Z,102604.06
2023-02-26T18:30:40.604Z,102599.75
2023-02-26T18:33:26.316Z,102602.34
2023-02-26T18:36:29.678Z,102604.13
2023-02-26T18:39:16.067Z,102611.13
2023-02-26T18:42:01.052Z,102612.88
2023-02-26T18:44:46.185Z,102618.13
2023-02-26T18:47:31.456Z,102619.09
2023-02-26T18:50:18.067Z,102626.00
2023-02-26T18:53:03.678Z,102629.50
2023-02-26T18:55:53.842Z,102625.19
2023-02-26T18:58:40.528Z,102625.19
2023-02-26T19:01:25.930Z,102622.63
2023-02-26T19:04:11.023Z,102629.59
2023-02-26T19:06:56.724Z,102628.75
2023-02-26T19:09:41.695Z,102631.34
2023-02-26T19:12:26.941Z,102630.53
2023-02-26T19:15:13.486Z,102627.97
2023-02-26T19:17:58.680Z,102634.88
2023-02-26T19:20:44.273Z,102633.19
2023-02-26T19:23:29.448Z,102635.00
2023-02-26T19:26:14.710Z,102638.47
2023-02-26T19:29:00.323Z,102633.28
2023-02-26T19:31:46.685Z,102640.16
2023-02-26T19:34:32.501Z,102636.78
2023-02-26T19:37:17.418Z,102597.22
2023-02-26T19:40:08.002Z,102609.25
2023-02-26T19:42:53.637Z,102633.31
2023-02-26T19:45:38.535Z,102630.78
2023-02-26T19:48:23.629Z,102631.63
2023-02-26T19:51:09.294Z,102633.34
2023-02-26T19:53:54.491Z,102624.78
2023-02-26T19:56:40.656Z,102635.09
2023-02-26T19:59:25.618Z,102640.28
2023-02-26T20:02:10.913Z,102642.03
2023-02-26T20:04:56.188Z,102639.44
2023-02-26T20:07:41.442Z,102640.31
2023-02-26T20:10:26.949Z,102617.16
2023-02-26T20:13:13.462Z,102622.28
2023-02-26T20:15:59.064Z,102641.22
2023-02-26T20:18:45.786Z,102622.28
2023-02-26T20:21:30.892Z,102644.69
2023-02-26T20:24:16.217Z,102644.69
2023-02-26T20:27:01.328Z,102644.69
2023-02-26T20:29:47.159Z,102614.56
2023-02-26T20:32:32.502Z,102633.50
2023-02-26T20:35:18.375Z,102648.16
2023-02-26T20:38:03.795Z,102652.47
2023-02-26T20:40:49.291Z,102645.59
2023-02-26T20:43:34.814Z,102639.56
2023-02-26T20:46:19.866Z,102655.06
2023-02-26T20:49:11.603Z,102656.81
2023-02-26T20:51:56.952Z,102655.13
2023-02-26T20:54:41.943Z,102668.91
2023-02-26T20:57:27.059Z,102654.28
2023-02-26T21:00:15.375Z,102663.72
2023-02-26T21:03:00.710Z,102655.13
2023-02-26T21:05:47.181Z,102668.06
2023-02-26T21:08:33.541Z,102666.38
2023-02-26T21:11:18.829Z,102671.53
2023-02-26T21:14:05.914Z,102664.66
2023-02-26T21:16:51.032Z,102652.63
2023-02-26T21:19:36.765Z,102663.81
2023-02-26T21:22:22.146Z,102672.44
2023-02-26T21:25:08.211Z,102671.53
2023-02-26T21:27:53.514Z,102671.56
2023-02-26T21:30:38.504Z,102675.91
2023-02-26T21:33:23.797Z,102671.59
2023-02-26T21:36:10.063Z,102664.72
2023-02-26T21:38:55.008Z,102644.91
2023-02-26T21:41:40.484Z,102643.19
2023-02-26T21:44:27.197Z,102657.84
2023-02-26T21:47:12.545Z,102669.03
2023-02-26T21:49:57.840Z,102671.63
2023-02-26T21:52:43.065Z,102674.22
2023-02-26T21:55:28.427Z,102678.56
2023-02-26T21:58:13.641Z,102665.63
2023-02-26T22:00:59.736Z,102673.41
2023-02-26T22:03:44.950Z,102674.25
2023-02-26T22:06:30.219Z,102675.13
2023-02-26T22:09:17.369Z,102679.44
2023-02-26T22:12:03.252Z,102676.00
2023-02-26T22:14:49.301Z,102675.16
2023-02-26T22:17:34.712Z,102682.06
2023-02-26T22:20:19.974Z,102678.59
2023-02-26T22:23:05.316Z,102682.06
2023-02-26T22:25:50.624Z,102683.78
2023-02-26T22:28:35.924Z,102640.72
2023-02-26T22:31:21.395Z,102672.59
2023-02-26T22:34:06.534Z,102680.34
2023-02-26T22:36:52.234Z,102674.28
2023-02-26T22:39:37.402Z,102677.75
2023-02-26T22:42:22.888Z,102665.72
2023-02-26T22:45:08.840Z,102677.75
2023-02-26T22:47:54.383Z,102675.19
2023-02-26T22:50:39.431Z,102676.03
2023-02-26T22:53:24.527Z,102670.91
2023-02-26T22:56:09.516Z,102674.34
2023-02-26T22:58:54.724Z,102684.69
2023-02-26T23:01:40.288Z,102667.44
2023-02-26T23:04:25.838Z,102677.81
2023-02-26T23:07:11.568Z,102683.84
2023-02-26T23:09:56.948Z,102685.53
2023-02-26T23:12:43.338Z,102688.97
2023-02-26T23:15:28.258Z,102684.69
2023-02-26T23:18:13.580Z,102684.69
2023-02-26T23:20:59.042Z,102687.28
2023-02-26T23:23:44.319Z,102687.28
2023-02-26T23:26:29.432Z,102696.75
2023-02-26T23:29:14.709Z,102677.81
2023-02-26T23:31:59.822Z,102671.78
2023-02-26T23:34:44.887Z,102701.09
2023-02-26T23:37:30.293Z,102704.50
2023-02-26T23:40:15.659Z,102708.81
2023-02-26T23:43:00.482Z,102701.94
2023-02-26T23:45:45.411Z,102707.97
2023-02-26T23:48:30.430Z,102712.28
2023-02-26T23:51:15.741Z,102716.56
2023-02-26T23:54:00.618Z,102696.78
2023-02-26T23:56:47.404Z,102711.38
2023-02-26T23:59:32.755Z,102707.09
